sensor_id;sensor_type;location;lat;lon;timestamp;P1;durP1;ratioP1;P2;durP2;ratioP2
11524;SDS011;5819;49.648;8.330;2023-08-20T00:00:04;7.07;;;6.05;;
11524;SDS011;5819;49.648;8.330;2023-08-20T00:02:39;8.95;;;6.07;;
11524;SDS011;5819;49.648;8.330;2023-08-20T00:05:09;6.70;;;6.10;;
11524;SDS011;5819;49.648;8.330;2023-08-20T00:07:38;7.03;;;6.35;;
11524;SDS011;5819;49.648;8.330;2023-08-20T00:10:07;7.28;;;5.97;;
11524;SDS011;5819;49.648;8.330;2023-08-20T00:12:36;7.05;;;5.65;;
11524;SDS011;5819;49.648;8.330;2023-08-20T00:15:04;7.82;;;5.70;;
11524;SDS011;5819;49.648;8.330;2023-08-20T00:17:33;8.70;;;6.55;;
11524;SDS011;5819;49.648;8.330;2023-08-20T00:20:05;6.47;;;5.88;;
11524;SDS011;5819;49.648;8.330;2023-08-20T00:22:36;7.75;;;5.85;;
11524;SDS011;5819;49.648;8.330;2023-08-20T00:25:05;7.68;;;6.22;;
11524;SDS011;5819;49.648;8.330;2023-08-20T00:27:33;8.50;;;6.20;;
11524;SDS011;5819;49.648;8.330;2023-08-20T00:30:02;6.47;;;5.68;;
11524;SDS011;5819;49.648;8.330;2023-08-20T00:32:30;6.18;;;5.63;;
11524;SDS011;5819;49.648;8.330;2023-08-20T00:34:59;6.90;;;6.00;;
11524;SDS011;5819;49.648;8.330;2023-08-20T00:37:28;6.63;;;5.60;;
11524;SDS011;5819;49.648;8.330;2023-08-20T00:39:57;6.90;;;6.20;;
11524;SDS011;5819;49.648;8.330;2023-08-20T00:42:25;8.38;;;6.03;;
11524;SDS011;5819;49.648;8.330;2023-08-20T00:44:53;6.95;;;6.20;;
11524;SDS011;5819;49.648;8.330;2023-08-20T00:47:21;8.20;;;6.15;;
11524;SDS011;5819;49.648;8.330;2023-08-20T00:49:50;6.93;;;6.05;;
11524;SDS011;5819;49.648;8.330;2023-08-20T00:52:18;7.05;;;6.10;;
11524;SDS011;5819;49.648;8.330;2023-08-20T00:54:49;6.57;;;5.97;;
11524;SDS011;5819;49.648;8.330;2023-08-20T00:57:18;6.82;;;6.10;;
11524;SDS011;5819;49.648;8.330;2023-08-20T00:59:46;6.40;;;5.80;;
11524;SDS011;5819;49.648;8.330;2023-08-20T01:02:15;7.10;;;6.00;;
11524;SDS011;5819;49.648;8.330;2023-08-20T01:04:45;6.30;;;5.72;;
11524;SDS011;5819;49.648;8.330;2023-08-20T01:07:17;7.80;;;6.47;;
11524;SDS011;5819;49.648;8.330;2023-08-20T01:09:55;8.48;;;5.88;;
11524;SDS011;5819;49.648;8.330;2023-08-20T01:12:28;6.50;;;5.90;;
11524;SDS011;5819;49.648;8.330;2023-08-20T01:14:57;5.90;;;5.40;;
11524;SDS011;5819;49.648;8.330;2023-08-20T01:17:25;6.57;;;6.00;;
11524;SDS011;5819;49.648;8.330;2023-08-20T01:19:53;10.07;;;6.18;;
11524;SDS011;5819;49.648;8.330;2023-08-20T01:22:40;10.57;;;6.25;;
11524;SDS011;5819;49.648;8.330;2023-08-20T01:25:32;7.68;;;6.30;;
11524;SDS011;5819;49.648;8.330;2023-08-20T01:28:25;8.48;;;6.30;;
11524;SDS011;5819;49.648;8.330;2023-08-20T01:30:55;6.38;;;5.55;;
11524;SDS011;5819;49.648;8.330;2023-08-20T01:33:25;7.25;;;6.57;;
11524;SDS011;5819;49.648;8.330;2023-08-20T01:35:53;6.85;;;6.15;;
11524;SDS011;5819;49.648;8.330;2023-08-20T01:38:22;11.05;;;6.35;;
11524;SDS011;5819;49.648;8.330;2023-08-20T01:40:50;7.93;;;6.30;;
11524;SDS011;5819;49.648;8.330;2023-08-20T01:43:18;7.00;;;6.28;;
11524;SDS011;5819;49.648;8.330;2023-08-20T01:45:47;8.60;;;5.65;;
11524;SDS011;5819;49.648;8.330;2023-08-20T01:48:15;6.45;;;5.93;;
11524;SDS011;5819;49.648;8.330;2023-08-20T01:50:43;7.13;;;6.50;;
11524;SDS011;5819;49.648;8.330;2023-08-20T01:53:12;6.72;;;6.07;;
11524;SDS011;5819;49.648;8.330;2023-08-20T01:55:41;6.70;;;6.03;;
11524;SDS011;5819;49.648;8.330;2023-08-20T01:58:09;7.93;;;6.85;;
11524;SDS011;5819;49.648;8.330;2023-08-20T02:00:37;7.03;;;6.45;;
11524;SDS011;5819;49.648;8.330;2023-08-20T02:03:06;9.88;;;6.85;;
11524;SDS011;5819;49.648;8.330;2023-08-20T02:05:35;8.23;;;7.03;;
11524;SDS011;5819;49.648;8.330;2023-08-20T02:08:05;9.43;;;6.78;;
11524;SDS011;5819;49.648;8.330;2023-08-20T02:10:33;7.75;;;6.97;;
11524;SDS011;5819;49.648;8.330;2023-08-20T02:13:04;7.82;;;7.13;;
11524;SDS011;5819;49.648;8.330;2023-08-20T02:15:33;13.35;;;7.35;;
11524;SDS011;5819;49.648;8.330;2023-08-20T02:18:01;8.10;;;7.32;;
11524;SDS011;5819;49.648;8.330;2023-08-20T02:20:31;8.13;;;7.43;;
11524;SDS011;5819;49.648;8.330;2023-08-20T02:22:59;9.98;;;6.90;;
11524;SDS011;5819;49.648;8.330;2023-08-20T02:25:27;8.40;;;7.35;;
11524;SDS011;5819;49.648;8.330;2023-08-20T02:27:55;8.48;;;6.88;;
11524;SDS011;5819;49.648;8.330;2023-08-20T02:30:23;8.55;;;7.18;;
11524;SDS011;5819;49.648;8.330;2023-08-20T02:32:51;7.25;;;6.55;;
11524;SDS011;5819;49.648;8.330;2023-08-20T02:35:19;8.93;;;7.30;;
11524;SDS011;5819;49.648;8.330;2023-08-20T02:37:51;7.63;;;6.82;;
11524;SDS011;5819;49.648;8.330;2023-08-20T02:40:18;8.00;;;6.50;;
11524;SDS011;5819;49.648;8.330;2023-08-20T02:42:46;7.47;;;6.68;;
11524;SDS011;5819;49.648;8.330;2023-08-20T02:45:14;8.30;;;7.40;;
11524;SDS011;5819;49.648;8.330;2023-08-20T02:47:42;8.00;;;7.20;;
11524;SDS011;5819;49.648;8.330;2023-08-20T02:50:13;7.22;;;6.45;;
11524;SDS011;5819;49.648;8.330;2023-08-20T02:52:42;7.57;;;6.78;;
11524;SDS011;5819;49.648;8.330;2023-08-20T02:55:11;7.55;;;6.85;;
11524;SDS011;5819;49.648;8.330;2023-08-20T02:57:39;8.23;;;7.30;;
11524;SDS011;5819;49.648;8.330;2023-08-20T03:00:07;7.82;;;7.03;;
11524;SDS011;5819;49.648;8.330;2023-08-20T03:02:38;9.18;;;6.85;;
11524;SDS011;5819;49.648;8.330;2023-08-20T03:05:07;7.72;;;6.97;;
11524;SDS011;5819;49.648;8.330;2023-08-20T03:07:35;8.23;;;7.40;;
11524;SDS011;5819;49.648;8.330;2023-08-20T03:10:03;7.65;;;6.97;;
11524;SDS011;5819;49.648;8.330;2023-08-20T03:12:33;7.57;;;6.95;;
11524;SDS011;5819;49.648;8.330;2023-08-20T03:15:01;10.43;;;8.00;;
11524;SDS011;5819;49.648;8.330;2023-08-20T03:17:30;11.20;;;7.60;;
11524;SDS011;5819;49.648;8.330;2023-08-20T03:19:59;8.80;;;7.90;;
11524;SDS011;5819;49.648;8.330;2023-08-20T03:22:30;10.50;;;7.80;;
11524;SDS011;5819;49.648;8.330;2023-08-20T03:24:58;10.77;;;7.78;;
11524;SDS011;5819;49.648;8.330;2023-08-20T03:27:25;9.43;;;8.32;;
11524;SDS011;5819;49.648;8.330;2023-08-20T03:29:55;9.77;;;8.02;;
11524;SDS011;5819;49.648;8.330;2023-08-20T03:32:22;8.98;;;7.40;;
11524;SDS011;5819;49.648;8.330;2023-08-20T03:34:51;8.70;;;7.72;;
11524;SDS011;5819;49.648;8.330;2023-08-20T03:37:20;8.45;;;7.72;;
11524;SDS011;5819;49.648;8.330;2023-08-20T03:39:48;10.02;;;8.38;;
11524;SDS011;5819;49.648;8.330;2023-08-20T03:42:16;9.77;;;8.65;;
11524;SDS011;5819;49.648;8.330;2023-08-20T03:44:44;10.73;;;8.48;;
11524;SDS011;5819;49.648;8.330;2023-08-20T03:47:13;9.23;;;8.32;;
11524;SDS011;5819;49.648;8.330;2023-08-20T03:49:42;9.35;;;8.40;;
11524;SDS011;5819;49.648;8.330;2023-08-20T03:52:10;10.05;;;8.32;;
11524;SDS011;5819;49.648;8.330;2023-08-20T03:54:38;9.40;;;8.35;;
11524;SDS011;5819;49.648;8.330;2023-08-20T03:57:05;8.85;;;8.00;;
11524;SDS011;5819;49.648;8.330;2023-08-20T03:59:33;9.60;;;8.10;;
11524;SDS011;5819;49.648;8.330;2023-08-20T04:02:01;10.00;;;8.20;;
11524;SDS011;5819;49.648;8.330;2023-08-20T04:04:30;10.25;;;8.10;;
11524;SDS011;5819;49.648;8.330;2023-08-20T04:06:59;10.13;;;8.60;;
11524;SDS011;5819;49.648;8.330;2023-08-20T04:09:26;9.70;;;8.73;;
11524;SDS011;5819;49.648;8.330;2023-08-20T04:11:54;12.15;;;8.35;;
11524;SDS011;5819;49.648;8.330;2023-08-20T04:14:22;8.50;;;7.70;;
11524;SDS011;5819;49.648;8.330;2023-08-20T04:16:51;10.02;;;8.10;;
11524;SDS011;5819;49.648;8.330;2023-08-20T04:19:19;8.45;;;7.72;;
11524;SDS011;5819;49.648;8.330;2023-08-20T04:21:48;10.25;;;8.63;;
11524;SDS011;5819;49.648;8.330;2023-08-20T04:24:16;9.20;;;7.80;;
11524;SDS011;5819;49.648;8.330;2023-08-20T04:26:45;8.18;;;7.38;;
11524;SDS011;5819;49.648;8.330;2023-08-20T04:29:17;8.50;;;7.35;;
11524;SDS011;5819;49.648;8.330;2023-08-20T04:31:44;7.85;;;7.15;;
11524;SDS011;5819;49.648;8.330;2023-08-20T04:34:12;9.93;;;7.10;;
11524;SDS011;5819;49.648;8.330;2023-08-20T04:36:45;10.18;;;8.27;;
11524;SDS011;5819;49.648;8.330;2023-08-20T04:39:14;8.60;;;7.75;;
11524;SDS011;5819;49.648;8.330;2023-08-20T04:41:47;11.00;;;7.93;;
11524;SDS011;5819;49.648;8.330;2023-08-20T04:44:17;10.70;;;8.02;;
11524;SDS011;5819;49.648;8.330;2023-08-20T04:46:46;8.57;;;7.72;;
11524;SDS011;5819;49.648;8.330;2023-08-20T04:49:14;8.50;;;7.70;;
11524;SDS011;5819;49.648;8.330;2023-08-20T04:51:42;9.27;;;8.13;;
11524;SDS011;5819;49.648;8.330;2023-08-20T04:54:10;10.98;;;8.63;;
11524;SDS011;5819;49.648;8.330;2023-08-20T04:56:40;9.35;;;7.90;;
11524;SDS011;5819;49.648;8.330;2023-08-20T04:59:09;9.98;;;8.65;;
11524;SDS011;5819;49.648;8.330;2023-08-20T05:01:52;11.00;;;8.43;;
11524;SDS011;5819;49.648;8.330;2023-08-20T05:04:34;9.43;;;8.07;;
11524;SDS011;5819;49.648;8.330;2023-08-20T05:07:02;10.80;;;7.80;;
11524;SDS011;5819;49.648;8.330;2023-08-20T05:09:30;8.80;;;7.90;;
11524;SDS011;5819;49.648;8.330;2023-08-20T05:11:59;12.65;;;7.70;;
11524;SDS011;5819;49.648;8.330;2023-08-20T05:14:27;9.88;;;8.15;;
11524;SDS011;5819;49.648;8.330;2023-08-20T05:16:55;8.10;;;7.35;;
11524;SDS011;5819;49.648;8.330;2023-08-20T05:19:23;9.60;;;7.20;;
11524;SDS011;5819;49.648;8.330;2023-08-20T05:21:52;7.90;;;7.03;;
11524;SDS011;5819;49.648;8.330;2023-08-20T05:24:22;9.35;;;7.55;;
11524;SDS011;5819;49.648;8.330;2023-08-20T05:27:04;8.40;;;7.60;;
11524;SDS011;5819;49.648;8.330;2023-08-20T05:29:33;8.85;;;7.55;;
11524;SDS011;5819;49.648;8.330;2023-08-20T05:32:02;8.82;;;7.93;;
11524;SDS011;5819;49.648;8.330;2023-08-20T05:34:29;8.10;;;7.30;;
11524;SDS011;5819;49.648;8.330;2023-08-20T05:36:57;8.45;;;7.53;;
11524;SDS011;5819;49.648;8.330;2023-08-20T05:39:26;9.80;;;7.57;;
11524;SDS011;5819;49.648;8.330;2023-08-20T05:41:54;8.75;;;7.82;;
11524;SDS011;5819;49.648;8.330;2023-08-20T05:44:25;8.93;;;7.95;;
11524;SDS011;5819;49.648;8.330;2023-08-20T05:46:53;12.02;;;7.78;;
11524;SDS011;5819;49.648;8.330;2023-08-20T05:49:24;8.52;;;7.72;;
11524;SDS011;5819;49.648;8.330;2023-08-20T05:51:56;8.75;;;7.90;;
11524;SDS011;5819;49.648;8.330;2023-08-20T05:54:24;10.63;;;8.20;;
11524;SDS011;5819;49.648;8.330;2023-08-20T05:56:54;8.63;;;7.57;;
11524;SDS011;5819;49.648;8.330;2023-08-20T05:59:22;9.77;;;7.82;;
11524;SDS011;5819;49.648;8.330;2023-08-20T06:01:52;9.35;;;7.72;;
11524;SDS011;5819;49.648;8.330;2023-08-20T06:04:20;9.00;;;8.10;;
11524;SDS011;5819;49.648;8.330;2023-08-20T06:06:48;9.00;;;7.90;;
11524;SDS011;5819;49.648;8.330;2023-08-20T06:09:16;8.95;;;8.05;;
11524;SDS011;5819;49.648;8.330;2023-08-20T06:11:44;8.93;;;7.93;;
11524;SDS011;5819;49.648;8.330;2023-08-20T06:14:13;8.60;;;7.15;;
11524;SDS011;5819;49.648;8.330;2023-08-20T06:16:41;8.77;;;7.75;;
11524;SDS011;5819;49.648;8.330;2023-08-20T06:19:10;8.50;;;7.60;;
11524;SDS011;5819;49.648;8.330;2023-08-20T06:21:38;10.23;;;7.43;;
11524;SDS011;5819;49.648;8.330;2023-08-20T06:24:06;9.30;;;7.43;;
11524;SDS011;5819;49.648;8.330;2023-08-20T06:26:35;9.40;;;7.65;;
11524;SDS011;5819;49.648;8.330;2023-08-20T06:29:03;8.85;;;7.25;;
11524;SDS011;5819;49.648;8.330;2023-08-20T06:31:30;9.43;;;7.57;;
11524;SDS011;5819;49.648;8.330;2023-08-20T06:33:58;10.98;;;7.10;;
11524;SDS011;5819;49.648;8.330;2023-08-20T06:36:27;7.63;;;6.93;;
11524;SDS011;5819;49.648;8.330;2023-08-20T06:38:55;7.95;;;7.07;;
11524;SDS011;5819;49.648;8.330;2023-08-20T06:41:23;7.93;;;7.13;;
11524;SDS011;5819;49.648;8.330;2023-08-20T06:43:51;7.65;;;6.57;;
11524;SDS011;5819;49.648;8.330;2023-08-20T06:46:19;10.60;;;6.95;;
11524;SDS011;5819;49.648;8.330;2023-08-20T06:48:47;7.38;;;6.78;;
11524;SDS011;5819;49.648;8.330;2023-08-20T06:51:18;7.65;;;6.38;;
11524;SDS011;5819;49.648;8.330;2023-08-20T06:53:49;6.90;;;6.20;;
11524;SDS011;5819;49.648;8.330;2023-08-20T06:56:17;9.70;;;7.00;;
11524;SDS011;5819;49.648;8.330;2023-08-20T06:58:45;8.93;;;6.35;;
11524;SDS011;5819;49.648;8.330;2023-08-20T07:01:13;8.57;;;7.00;;
11524;SDS011;5819;49.648;8.330;2023-08-20T07:03:42;7.97;;;7.18;;
11524;SDS011;5819;49.648;8.330;2023-08-20T07:06:11;10.35;;;7.35;;
11524;SDS011;5819;49.648;8.330;2023-08-20T07:08:40;8.23;;;7.28;;
11524;SDS011;5819;49.648;8.330;2023-08-20T07:11:09;7.72;;;6.97;;
11524;SDS011;5819;49.648;8.330;2023-08-20T07:13:37;7.75;;;6.63;;
11524;SDS011;5819;49.648;8.330;2023-08-20T07:16:05;9.68;;;7.50;;
11524;SDS011;5819;49.648;8.330;2023-08-20T07:18:33;8.80;;;6.85;;
11524;SDS011;5819;49.648;8.330;2023-08-20T07:21:01;8.05;;;7.35;;
11524;SDS011;5819;49.648;8.330;2023-08-20T07:23:29;7.82;;;7.10;;
11524;SDS011;5819;49.648;8.330;2023-08-20T07:26:03;9.25;;;7.70;;
11524;SDS011;5819;49.648;8.330;2023-08-20T07:28:34;9.05;;;8.20;;
11524;SDS011;5819;49.648;8.330;2023-08-20T07:31:22;9.68;;;7.82;;
11524;SDS011;5819;49.648;8.330;2023-08-20T07:33:52;8.73;;;7.60;;
11524;SDS011;5819;49.648;8.330;2023-08-20T07:36:22;9.90;;;7.55;;
11524;SDS011;5819;49.648;8.330;2023-08-20T07:38:51;7.90;;;7.10;;
11524;SDS011;5819;49.648;8.330;2023-08-20T07:41:19;9.45;;;7.13;;
11524;SDS011;5819;49.648;8.330;2023-08-20T07:43:49;8.40;;;7.60;;
11524;SDS011;5819;49.648;8.330;2023-08-20T07:46:17;8.35;;;7.53;;
11524;SDS011;5819;49.648;8.330;2023-08-20T07:48:45;10.27;;;7.55;;
11524;SDS011;5819;49.648;8.330;2023-08-20T07:51:12;8.18;;;6.75;;
11524;SDS011;5819;49.648;8.330;2023-08-20T07:53:40;10.93;;;7.60;;
11524;SDS011;5819;49.648;8.330;2023-08-20T07:56:08;10.15;;;7.53;;
11524;SDS011;5819;49.648;8.330;2023-08-20T07:58:36;8.02;;;7.32;;
11524;SDS011;5819;49.648;8.330;2023-08-20T08:01:05;7.55;;;6.75;;
11524;SDS011;5819;49.648;8.330;2023-08-20T08:03:34;6.75;;;6.13;;
11524;SDS011;5819;49.648;8.330;2023-08-20T08:06:02;7.85;;;7.00;;
11524;SDS011;5819;49.648;8.330;2023-08-20T08:08:31;8.48;;;7.38;;
11524;SDS011;5819;49.648;8.330;2023-08-20T08:10:59;10.18;;;7.38;;
11524;SDS011;5819;49.648;8.330;2023-08-20T08:13:27;9.60;;;7.32;;
11524;SDS011;5819;49.648;8.330;2023-08-20T08:15:55;9.70;;;7.25;;
11524;SDS011;5819;49.648;8.330;2023-08-20T08:18:24;7.35;;;6.65;;
11524;SDS011;5819;49.648;8.330;2023-08-20T08:20:52;9.98;;;6.85;;
11524;SDS011;5819;49.648;8.330;2023-08-20T08:23:21;9.25;;;6.88;;
11524;SDS011;5819;49.648;8.330;2023-08-20T08:25:49;8.98;;;7.00;;
11524;SDS011;5819;49.648;8.330;2023-08-20T08:28:18;8.20;;;7.22;;
11524;SDS011;5819;49.648;8.330;2023-08-20T08:30:46;7.95;;;6.60;;
11524;SDS011;5819;49.648;8.330;2023-08-20T08:33:14;7.28;;;6.50;;
11524;SDS011;5819;49.648;8.330;2023-08-20T08:35:44;7.75;;;6.75;;
11524;SDS011;5819;49.648;8.330;2023-08-20T08:38:12;7.90;;;7.07;;
11524;SDS011;5819;49.648;8.330;2023-08-20T08:40:40;8.73;;;6.68;;
11524;SDS011;5819;49.648;8.330;2023-08-20T08:43:10;7.35;;;6.65;;
11524;SDS011;5819;49.648;8.330;2023-08-20T08:45:44;7.03;;;6.43;;
11524;SDS011;5819;49.648;8.330;2023-08-20T08:48:14;8.93;;;7.05;;
11524;SDS011;5819;49.648;8.330;2023-08-20T08:50:44;7.65;;;6.70;;
11524;SDS011;5819;49.648;8.330;2023-08-20T08:53:13;7.85;;;6.70;;
11524;SDS011;5819;49.648;8.330;2023-08-20T08:55:42;7.47;;;6.25;;
11524;SDS011;5819;49.648;8.330;2023-08-20T08:58:10;7.88;;;6.25;;
11524;SDS011;5819;49.648;8.330;2023-08-20T09:00:37;8.13;;;6.40;;
11524;SDS011;5819;49.648;8.330;2023-08-20T09:03:05;6.88;;;6.18;;
11524;SDS011;5819;49.648;8.330;2023-08-20T09:05:46;6.40;;;5.78;;
11524;SDS011;5819;49.648;8.330;2023-08-20T09:08:20;8.40;;;7.65;;
11524;SDS011;5819;49.648;8.330;2023-08-20T09:10:50;9.98;;;7.72;;
11524;SDS011;5819;49.648;8.330;2023-08-20T09:13:21;8.50;;;6.03;;
11524;SDS011;5819;49.648;8.330;2023-08-20T09:15:51;8.38;;;6.75;;
11524;SDS011;5819;49.648;8.330;2023-08-20T09:18:19;6.25;;;5.72;;
11524;SDS011;5819;49.648;8.330;2023-08-20T09:20:49;7.57;;;6.10;;
11524;SDS011;5819;49.648;8.330;2023-08-20T09:23:17;6.90;;;5.90;;
11524;SDS011;5819;49.648;8.330;2023-08-20T09:25:45;7.45;;;6.35;;
11524;SDS011;5819;49.648;8.330;2023-08-20T09:28:13;6.22;;;5.63;;
11524;SDS011;5819;49.648;8.330;2023-08-20T09:30:47;6.50;;;5.43;;
11524;SDS011;5819;49.648;8.330;2023-08-20T09:33:22;6.38;;;5.78;;
11524;SDS011;5819;49.648;8.330;2023-08-20T09:35:52;6.63;;;5.82;;
11524;SDS011;5819;49.648;8.330;2023-08-20T09:38:21;7.07;;;6.38;;
11524;SDS011;5819;49.648;8.330;2023-08-20T09:40:51;6.13;;;5.40;;
11524;SDS011;5819;49.648;8.330;2023-08-20T09:43:23;6.93;;;6.28;;
11524;SDS011;5819;49.648;8.330;2023-08-20T09:45:55;6.75;;;6.05;;
11524;SDS011;5819;49.648;8.330;2023-08-20T09:48:24;6.93;;;6.05;;
11524;SDS011;5819;49.648;8.330;2023-08-20T09:50:58;5.78;;;5.28;;
11524;SDS011;5819;49.648;8.330;2023-08-20T09:53:34;8.13;;;5.70;;
11524;SDS011;5819;49.648;8.330;2023-08-20T09:56:06;8.98;;;6.15;;
11524;SDS011;5819;49.648;8.330;2023-08-20T09:58:37;6.20;;;5.60;;
11524;SDS011;5819;49.648;8.330;2023-08-20T10:01:06;6.90;;;5.63;;
11524;SDS011;5819;49.648;8.330;2023-08-20T10:03:34;7.38;;;5.45;;
11524;SDS011;5819;49.648;8.330;2023-08-20T10:06:06;5.68;;;4.70;;
11524;SDS011;5819;49.648;8.330;2023-08-20T10:08:35;6.75;;;4.60;;
11524;SDS011;5819;49.648;8.330;2023-08-20T10:11:05;6.30;;;5.43;;
11524;SDS011;5819;49.648;8.330;2023-08-20T10:13:33;4.95;;;4.45;;
11524;SDS011;5819;49.648;8.330;2023-08-20T10:16:02;6.25;;;5.38;;
11524;SDS011;5819;49.648;8.330;2023-08-20T10:18:30;5.93;;;5.18;;
11524;SDS011;5819;49.648;8.330;2023-08-20T10:21:02;7.07;;;5.30;;
11524;SDS011;5819;49.648;8.330;2023-08-20T10:23:32;5.80;;;4.85;;
11524;SDS011;5819;49.648;8.330;2023-08-20T10:26:06;6.57;;;4.97;;
11524;SDS011;5819;49.648;8.330;2023-08-20T10:28:35;8.32;;;4.60;;
11524;SDS011;5819;49.648;8.330;2023-08-20T10:31:08;5.07;;;4.57;;
11524;SDS011;5819;49.648;8.330;2023-08-20T10:33:38;5.72;;;5.07;;
11524;SDS011;5819;49.648;8.330;2023-08-20T10:36:18;7.28;;;5.88;;
11524;SDS011;5819;49.648;8.330;2023-08-20T10:38:50;8.55;;;5.70;;
11524;SDS011;5819;49.648;8.330;2023-08-20T10:41:24;6.18;;;5.30;;
11524;SDS011;5819;49.648;8.330;2023-08-20T10:43:58;6.20;;;4.88;;
11524;SDS011;5819;49.648;8.330;2023-08-20T10:46:27;6.68;;;5.07;;
11524;SDS011;5819;49.648;8.330;2023-08-20T10:48:58;6.18;;;5.57;;
11524;SDS011;5819;49.648;8.330;2023-08-20T10:51:35;7.35;;;5.15;;
11524;SDS011;5819;49.648;8.330;2023-08-20T10:54:09;8.00;;;5.25;;
11524;SDS011;5819;49.648;8.330;2023-08-20T10:56:43;8.93;;;5.47;;
11524;SDS011;5819;49.648;8.330;2023-08-20T10:59:16;5.15;;;4.65;;
11524;SDS011;5819;49.648;8.330;2023-08-20T11:01:48;6.00;;;5.47;;
11524;SDS011;5819;49.648;8.330;2023-08-20T11:04:22;8.10;;;6.47;;
11524;SDS011;5819;49.648;8.330;2023-08-20T11:07:02;5.88;;;5.38;;
11524;SDS011;5819;49.648;8.330;2023-08-20T11:09:37;6.00;;;5.40;;
11524;SDS011;5819;49.648;8.330;2023-08-20T11:12:08;7.15;;;5.10;;
11524;SDS011;5819;49.648;8.330;2023-08-20T11:14:40;5.60;;;5.00;;
11524;SDS011;5819;49.648;8.330;2023-08-20T11:17:13;6.15;;;5.30;;
11524;SDS011;5819;49.648;8.330;2023-08-20T11:19:53;6.68;;;5.97;;
11524;SDS011;5819;49.648;8.330;2023-08-20T11:22:35;6.15;;;5.55;;
11524;SDS011;5819;49.648;8.330;2023-08-20T11:25:12;6.05;;;5.13;;
11524;SDS011;5819;49.648;8.330;2023-08-20T11:27:51;5.30;;;4.70;;
11524;SDS011;5819;49.648;8.330;2023-08-20T11:30:22;6.05;;;5.15;;
11524;SDS011;5819;49.648;8.330;2023-08-20T11:32:59;5.40;;;4.57;;
11524;SDS011;5819;49.648;8.330;2023-08-20T11:35:33;5.57;;;5.00;;
11524;SDS011;5819;49.648;8.330;2023-08-20T11:38:05;6.65;;;4.32;;
11524;SDS011;5819;49.648;8.330;2023-08-20T11:40:53;5.90;;;4.78;;
11524;SDS011;5819;49.648;8.330;2023-08-20T11:43:35;5.40;;;4.80;;
11524;SDS011;5819;49.648;8.330;2023-08-20T11:46:13;6.50;;;4.60;;
11524;SDS011;5819;49.648;8.330;2023-08-20T11:48:58;6.30;;;4.32;;
11524;SDS011;5819;49.648;8.330;2023-08-20T11:51:36;6.07;;;4.70;;
11524;SDS011;5819;49.648;8.330;2023-08-20T11:54:17;6.15;;;4.00;;
11524;SDS011;5819;49.648;8.330;2023-08-20T11:57:01;6.47;;;4.60;;
11524;SDS011;5819;49.648;8.330;2023-08-20T11:59:34;5.45;;;4.70;;
11524;SDS011;5819;49.648;8.330;2023-08-20T12:02:03;4.95;;;4.45;;
11524;SDS011;5819;49.648;8.330;2023-08-20T12:04:31;5.70;;;4.93;;
11524;SDS011;5819;49.648;8.330;2023-08-20T12:07:02;5.47;;;4.55;;
11524;SDS011;5819;49.648;8.330;2023-08-20T12:09:32;6.20;;;4.60;;
11524;SDS011;5819;49.648;8.330;2023-08-20T12:12:02;6.18;;;4.85;;
11524;SDS011;5819;49.648;8.330;2023-08-20T12:14:33;5.18;;;4.57;;
11524;SDS011;5819;49.648;8.330;2023-08-20T12:17:02;4.22;;;3.90;;
11524;SDS011;5819;49.648;8.330;2023-08-20T12:19:30;5.95;;;4.65;;
11524;SDS011;5819;49.648;8.330;2023-08-20T12:21:58;6.82;;;4.50;;
11524;SDS011;5819;49.648;8.330;2023-08-20T12:24:26;5.80;;;4.40;;
11524;SDS011;5819;49.648;8.330;2023-08-20T12:26:54;4.70;;;4.30;;
11524;SDS011;5819;49.648;8.330;2023-08-20T12:29:24;6.15;;;4.10;;
11524;SDS011;5819;49.648;8.330;2023-08-20T12:31:52;6.47;;;4.55;;
11524;SDS011;5819;49.648;8.330;2023-08-20T12:34:20;5.45;;;3.80;;
11524;SDS011;5819;49.648;8.330;2023-08-20T12:36:50;5.63;;;4.15;;
11524;SDS011;5819;49.648;8.330;2023-08-20T12:39:18;4.47;;;3.97;;
11524;SDS011;5819;49.648;8.330;2023-08-20T12:41:47;6.72;;;4.10;;
11524;SDS011;5819;49.648;8.330;2023-08-20T12:44:15;4.63;;;3.55;;
11524;SDS011;5819;49.648;8.330;2023-08-20T12:46:44;5.63;;;4.07;;
11524;SDS011;5819;49.648;8.330;2023-08-20T12:49:12;7.10;;;4.35;;
11524;SDS011;5819;49.648;8.330;2023-08-20T12:51:41;4.53;;;4.13;;
11524;SDS011;5819;49.648;8.330;2023-08-20T12:54:08;6.47;;;4.40;;
11524;SDS011;5819;49.648;8.330;2023-08-20T12:56:37;4.32;;;4.03;;
11524;SDS011;5819;49.648;8.330;2023-08-20T12:59:05;4.78;;;4.38;;
11524;SDS011;5819;49.648;8.330;2023-08-20T13:01:33;4.63;;;3.72;;
11524;SDS011;5819;49.648;8.330;2023-08-20T13:04:15;4.45;;;4.05;;
11524;SDS011;5819;49.648;8.330;2023-08-20T13:09:51;5.43;;;4.35;;
11524;SDS011;5819;49.648;8.330;2023-08-20T13:12:47;4.40;;;4.00;;
11524;SDS011;5819;49.648;8.330;2023-08-20T13:15:33;4.93;;;3.88;;
11524;SDS011;5819;49.648;8.330;2023-08-20T13:18:15;4.80;;;3.88;;
11524;SDS011;5819;49.648;8.330;2023-08-20T13:20:48;5.50;;;3.83;;
11524;SDS011;5819;49.648;8.330;2023-08-20T13:23:38;4.63;;;3.55;;
11524;SDS011;5819;49.648;8.330;2023-08-20T13:26:16;4.85;;;3.63;;
11524;SDS011;5819;49.648;8.330;2023-08-20T13:28:46;4.20;;;3.80;;
11524;SDS011;5819;49.648;8.330;2023-08-20T13:31:15;4.35;;;4.00;;
11524;SDS011;5819;49.648;8.330;2023-08-20T13:33:43;4.53;;;3.97;;
11524;SDS011;5819;49.648;8.330;2023-08-20T13:36:13;4.70;;;3.33;;
11524;SDS011;5819;49.648;8.330;2023-08-20T13:38:42;2.95;;;2.60;;
11524;SDS011;5819;49.648;8.330;2023-08-20T13:41:10;4.28;;;2.75;;
11524;SDS011;5819;49.648;8.330;2023-08-20T13:43:38;6.57;;;3.50;;
11524;SDS011;5819;49.648;8.330;2023-08-20T13:46:06;5.00;;;3.38;;
11524;SDS011;5819;49.648;8.330;2023-08-20T13:48:35;6.13;;;3.50;;
11524;SDS011;5819;49.648;8.330;2023-08-20T13:51:03;7.13;;;3.67;;
11524;SDS011;5819;49.648;8.330;2023-08-20T13:53:35;4.43;;;3.28;;
11524;SDS011;5819;49.648;8.330;2023-08-20T13:56:06;7.55;;;3.30;;
11524;SDS011;5819;49.648;8.330;2023-08-20T13:58:35;5.93;;;3.78;;
11524;SDS011;5819;49.648;8.330;2023-08-20T14:01:08;4.43;;;2.97;;
11524;SDS011;5819;49.648;8.330;2023-08-20T14:03:36;4.13;;;3.20;;
11524;SDS011;5819;49.648;8.330;2023-08-20T14:06:14;3.95;;;3.00;;
11524;SDS011;5819;49.648;8.330;2023-08-20T14:08:44;4.65;;;3.65;;
11524;SDS011;5819;49.648;8.330;2023-08-20T14:11:13;3.90;;;2.83;;
11524;SDS011;5819;49.648;8.330;2023-08-20T14:13:47;5.57;;;3.05;;
11524;SDS011;5819;49.648;8.330;2023-08-20T14:16:15;5.30;;;4.38;;
11524;SDS011;5819;49.648;8.330;2023-08-20T14:18:43;4.50;;;4.07;;
11524;SDS011;5819;49.648;8.330;2023-08-20T14:21:11;4.10;;;3.45;;
11524;SDS011;5819;49.648;8.330;2023-08-20T14:23:39;3.50;;;2.97;;
11524;SDS011;5819;49.648;8.330;2023-08-20T14:26:09;4.90;;;2.97;;
11524;SDS011;5819;49.648;8.330;2023-08-20T14:28:37;4.97;;;3.08;;
11524;SDS011;5819;49.648;8.330;2023-08-20T14:31:05;5.00;;;3.25;;
11524;SDS011;5819;49.648;8.330;2023-08-20T14:33:33;7.47;;;3.50;;
11524;SDS011;5819;49.648;8.330;2023-08-20T14:36:01;4.57;;;3.17;;
11524;SDS011;5819;49.648;8.330;2023-08-20T14:38:30;3.33;;;3.03;;
11524;SDS011;5819;49.648;8.330;2023-08-20T14:40:59;5.03;;;3.35;;
11524;SDS011;5819;49.648;8.330;2023-08-20T14:43:31;5.13;;;3.17;;
11524;SDS011;5819;49.648;8.330;2023-08-20T14:45:59;5.20;;;3.35;;
11524;SDS011;5819;49.648;8.330;2023-08-20T14:48:28;3.88;;;3.25;;
11524;SDS011;5819;49.648;8.330;2023-08-20T14:50:56;4.35;;;3.30;;
11524;SDS011;5819;49.648;8.330;2023-08-20T14:53:24;6.30;;;3.47;;
11524;SDS011;5819;49.648;8.330;2023-08-20T14:55:52;5.22;;;3.70;;
11524;SDS011;5819;49.648;8.330;2023-08-20T14:58:21;5.30;;;3.15;;
11524;SDS011;5819;49.648;8.330;2023-08-20T15:00:50;5.30;;;3.75;;
11524;SDS011;5819;49.648;8.330;2023-08-20T15:03:18;4.97;;;3.70;;
11524;SDS011;5819;49.648;8.330;2023-08-20T15:05:46;3.80;;;3.35;;
11524;SDS011;5819;49.648;8.330;2023-08-20T15:08:15;4.10;;;3.70;;
11524;SDS011;5819;49.648;8.330;2023-08-20T15:10:42;4.95;;;3.97;;
11524;SDS011;5819;49.648;8.330;2023-08-20T15:13:10;4.88;;;3.88;;
11524;SDS011;5819;49.648;8.330;2023-08-20T15:15:40;7.20;;;3.65;;
11524;SDS011;5819;49.648;8.330;2023-08-20T15:18:09;5.38;;;3.45;;
11524;SDS011;5819;49.648;8.330;2023-08-20T15:20:37;6.55;;;3.83;;